Time;durP1;ratioP1;P1;durP2;ratioP2;P2;SDS_P1;SDS_P2;PMS_P1;PMS_P2;Temp;Humidity;BMP_temperature;BMP_pressure;BME280_temperature;BME280_humidity;BME280_pressure;Samples;Min_cycle;Max_cycle;Signal;HPM_P1;HPM_P2
2022/06/01 00:01:44;;;;;;;6.87;6.27;;;18.70;99.90;;;;;;6276449;28;20235;-63
2022/06/01 00:04:49;;;;;;;7.27;6.67;;;18.80;99.90;;;;;;6276537;28;20247;-64
2022/06/01 00:07:52;;;;;;;6.70;6.10;;;18.80;99.90;;;;;;6276980;28;20233;-62
2022/06/01 00:10:57;;;;;;;7.50;6.80;;;18.80;99.90;;;;;;6301224;27;21011;-65
2022/06/01 00:14:00;;;;;;;6.83;6.10;;;18.90;99.90;;;;;;6300849;28;20231;-65
2022/06/01 00:17:03;;;;;;;6.20;5.70;;;18.90;99.90;;;;;;6282707;28;20243;-64
2022/06/01 00:20:10;;;;;;;6.70;6.20;;;18.90;99.90;;;;;;6274132;28;20470;-62
2022/06/01 00:23:13;;;;;;;6.63;6.00;;;18.90;99.90;;;;;;6277516;28;20470;-63
2022/06/01 00:26:17;;;;;;;9.63;6.47;;;18.90;99.90;;;;;;6296254;28;20487;-62
2022/06/01 00:29:20;;;;;;;6.93;6.30;;;19.00;99.90;;;;;;6297331;28;20484;-62
2022/06/01 00:32:23;;;;;;;7.23;6.53;;;19.00;99.90;;;;;;6298972;28;20219;-62
2022/06/01 00:35:28;;;;;;;6.40;5.80;;;18.90;99.90;;;;;;6299451;28;20473;-61
2022/06/01 00:38:31;;;;;;;6.07;5.20;;;18.90;99.90;;;;;;6300163;28;20230;-62
2022/06/01 00:41:35;;;;;;;7.07;6.57;;;18.90;99.90;;;;;;6299329;28;20243;-62
2022/06/01 00:44:38;;;;;;;7.07;5.80;;;18.80;99.90;;;;;;6299781;28;20235;-62
2022/06/01 00:47:41;;;;;;;6.00;5.50;;;18.90;99.90;;;;;;6298172;28;20756;-62
2022/06/01 00:50:46;;;;;;;6.67;6.17;;;18.80;99.90;;;;;;6296148;28;20690;-61
2022/06/01 00:53:51;;;;;;;6.00;5.47;;;18.90;99.90;;;;;;6298362;28;20474;-61
2022/06/01 00:56:58;;;;;;;7.40;6.00;;;18.80;99.90;;;;;;6299327;28;20219;-62
2022/06/01 01:00:05;;;;;;;6.43;5.83;;;18.60;99.90;;;;;;6299882;28;20231;-62
2022/06/01 01:03:11;;;;;;;8.07;7.27;;;18.50;99.90;;;;;;6300113;28;20483;-62
2022/06/01 01:06:21;;;;;;;5.63;5.13;;;18.40;99.90;;;;;;6299617;28;20705;-63
2022/06/01 01:09:24;;;;;;;6.37;5.87;;;18.40;99.90;;;;;;6299999;28;20474;-63
2022/06/01 01:12:55;;;;;;;7.30;5.70;;;18.50;99.90;;;;;;6290285;28;20249;-63
2022/06/01 01:15:54;;;;;;;7.60;6.23;;;18.50;99.90;;;;;;6299710;28;20766;-63
2022/06/01 01:18:59;;;;;;;5.73;5.23;;;18.50;99.90;;;;;;6299532;28;20472;-63
2022/06/01 01:22:13;;;;;;;5.83;5.43;;;18.60;99.90;;;;;;6299267;28;20493;-63
2022/06/01 01:25:21;;;;;;;6.13;5.63;;;18.50;99.90;;;;;;6300043;28;20730;-63
2022/06/01 01:28:25;;;;;;;8.00;5.53;;;18.60;99.90;;;;;;6300511;28;20414;-62
2022/06/01 01:31:28;;;;;;;7.03;6.30;;;18.60;99.90;;;;;;6299393;28;20564;-62
2022/06/01 01:34:31;;;;;;;5.50;5.00;;;18.60;99.90;;;;;;6299364;28;20241;-62
2022/06/01 01:37:35;;;;;;;5.03;4.63;;;18.60;99.90;;;;;;6299421;28;20932;-62
2022/06/01 01:40:39;;;;;;;4.57;3.57;;;18.60;99.90;;;;;;6299835;28;20223;-62
2022/06/01 01:43:49;;;;;;;3.10;2.47;;;18.50;99.90;;;;;;6299413;28;20336;-62
2022/06/01 01:46:52;;;;;;;3.23;2.47;;;18.50;99.90;;;;;;6299889;28;20476;-62
2022/06/01 01:49:55;;;;;;;3.07;2.87;;;18.40;99.90;;;;;;6299442;28;20227;-62
2022/06/01 01:52:58;;;;;;;2.07;1.93;;;18.30;99.90;;;;;;6299198;28;21081;-61
2022/06/01 01:56:13;;;;;;;2.40;2.20;;;18.40;99.90;;;;;;6299946;28;20237;-61
2022/06/01 01:59:28;;;;;;;2.27;2.10;;;18.30;99.90;;;;;;6299680;28;20653;-61
2022/06/01 02:02:38;;;;;;;1.73;1.63;;;18.30;99.90;;;;;;6299845;28;20465;-62
2022/06/01 02:06:06;;;;;;;2.07;1.40;;;18.30;99.90;;;;;;6299615;28;20465;-62
2022/06/01 02:09:12;;;;;;;1.90;1.70;;;18.20;99.90;;;;;;6299270;28;20476;-62
2022/06/01 02:15:43;;;;;;;2.00;1.70;;;18.10;99.90;;;;;;6294416;28;20527;-62
2022/06/01 02:18:50;;;;;;;1.40;1.30;;;18.10;99.90;;;;;;6301847;28;20476;-62
2022/06/01 02:21:55;;;;;;;1.80;1.70;;;18.10;99.90;;;;;;6303789;28;20264;-62
2022/06/01 02:24:58;;;;;;;1.67;1.43;;;18.10;99.90;;;;;;6303770;28;20465;-62
2022/06/01 02:28:03;;;;;;;1.60;1.43;;;18.10;99.90;;;;;;6303600;28;20473;-62
2022/06/01 02:31:06;;;;;;;2.37;1.60;;;18.10;99.90;;;;;;6303438;28;20465;-63
2022/06/01 02:34:11;;;;;;;1.40;1.30;;;18.10;99.90;;;;;;6302715;28;20647;-62
2022/06/01 02:37:18;;;;;;;2.20;2.03;;;18.10;99.90;;;;;;6303030;28;20199;-63
2022/06/01 02:40:23;;;;;;;2.60;2.40;;;18.10;99.90;;;;;;6303627;28;20430;-63
2022/06/01 02:43:28;;;;;;;2.87;2.67;;;18.20;99.90;;;;;;6302475;28;20792;-62
2022/06/01 02:46:32;;;;;;;3.83;3.53;;;18.10;99.90;;;;;;6303179;28;20469;-63
2022/06/01 02:49:36;;;;;;;3.53;3.23;;;18.10;99.90;;;;;;6303256;28;20552;-63
2022/06/01 02:52:40;;;;;;;3.30;2.93;;;18.00;99.90;;;;;;6302567;28;20943;-62
2022/06/01 02:55:43;;;;;;;2.73;2.53;;;18.00;99.90;;;;;;6303209;28;20461;-62
2022/06/01 02:58:49;;;;;;;2.80;2.47;;;18.10;99.90;;;;;;6303306;28;20487;-62
2022/06/01 03:01:52;;;;;;;3.03;2.70;;;18.00;99.90;;;;;;6303262;28;20260;-62
2022/06/01 03:04:55;;;;;;;2.60;2.40;;;18.00;99.90;;;;;;6302919;28;20555;-62
2022/06/01 03:07:58;;;;;;;2.97;2.70;;;18.00;99.90;;;;;;6302409;28;20974;-62
2022/06/01 03:11:02;;;;;;;3.63;2.63;;;18.10;99.90;;;;;;6302919;28;20788;-63
2022/06/01 03:14:06;;;;;;;3.23;2.93;;;18.00;99.90;;;;;;6302856;28;20473;-63
2022/06/01 03:17:09;;;;;;;4.03;3.30;;;18.00;99.90;;;;;;6298337;28;20480;-63
2022/06/01 03:20:15;;;;;;;3.00;2.67;;;18.00;99.90;;;;;;6303083;28;20480;-63
2022/06/01 03:23:19;;;;;;;3.80;3.50;;;17.90;99.90;;;;;;6302806;28;20480;-63
2022/06/01 03:26:22;;;;;;;6.50;3.10;;;18.00;99.90;;;;;;6302025;28;20500;-63
2022/06/01 03:29:27;;;;;;;3.53;2.93;;;17.90;99.90;;;;;;6301742;28;20465;-63
2022/06/01 03:32:30;;;;;;;4.40;4.00;;;17.90;99.90;;;;;;6301784;28;20474;-63
2022/06/01 03:35:34;;;;;;;4.37;3.40;;;17.90;99.90;;;;;;6302354;28;20981;-63
2022/06/01 03:38:37;;;;;;;4.03;3.73;;;17.90;99.90;;;;;;6302053;28;20813;-63
2022/06/01 03:41:40;;;;;;;5.63;2.80;;;17.80;99.90;;;;;;6301913;28;20989;-63
2022/06/01 03:48:08;;;;;;;2.60;2.17;;;17.80;99.90;;;;;;6302091;28;20476;-63
2022/06/01 03:51:12;;;;;;;2.60;2.40;;;17.80;99.90;;;;;;6301623;28;20560;-63
2022/06/01 03:54:15;;;;;;;2.20;2.00;;;17.80;99.90;;;;;;6301952;28;20954;-63
2022/06/01 03:57:18;;;;;;;2.10;2.00;;;17.80;99.90;;;;;;6301295;28;20954;-63
2022/06/01 04:00:25;;;;;;;2.90;2.70;;;17.70;99.90;;;;;;6301304;28;20504;-63
2022/06/01 04:03:28;;;;;;;3.10;2.53;;;17.70;99.90;;;;;;6301378;28;20485;-63
2022/06/01 04:06:31;;;;;;;3.50;2.80;;;17.70;99.90;;;;;;6301063;28;20466;-63
2022/06/01 04:09:34;;;;;;;3.00;2.80;;;17.70;99.90;;;;;;6301470;28;20477;-63
2022/06/01 04:12:38;;;;;;;3.67;3.47;;;17.70;99.90;;;;;;6300433;28;20473;-63
2022/06/01 04:15:43;;;;;;;3.33;3.03;;;17.80;99.90;;;;;;6300793;28;20484;-63
2022/06/01 04:18:46;;;;;;;4.10;3.80;;;17.90;99.90;;;;;;6300839;28;20488;-63
2022/06/01 04:21:52;;;;;;;4.60;4.20;;;18.00;99.90;;;;;;6296525;28;20556;-63
2022/06/01 04:24:55;;;;;;;4.73;4.33;;;18.10;99.90;;;;;;6300926;28;20800;-63
2022/06/01 04:27:59;;;;;;;5.17;4.67;;;18.00;99.90;;;;;;6300950;28;20477;-63
2022/06/01 04:31:03;;;;;;;4.43;4.13;;;18.00;99.90;;;;;;6300856;28;20469;-63
2022/06/01 04:34:07;;;;;;;5.10;4.70;;;18.10;99.90;;;;;;6300814;28;20501;-63
2022/06/01 04:37:10;;;;;;;7.07;6.00;;;18.20;99.90;;;;;;6300078;28;20481;-63
2022/06/01 04:40:14;;;;;;;6.60;6.00;;;18.40;99.90;;;;;;6300525;28;20451;-63
2022/06/01 04:43:20;;;;;;;7.50;6.90;;;18.40;99.90;;;;;;6299444;28;20461;-63
2022/06/01 04:46:30;;;;;;;7.97;7.27;;;18.50;99.90;;;;;;6299983;28;20269;-63
2022/06/01 04:49:35;;;;;;;7.13;6.53;;;18.70;99.90;;;;;;6300631;28;20454;-63
2022/06/01 04:52:38;;;;;;;8.90;6.03;;;18.80;99.90;;;;;;6300104;28;20273;-63
2022/06/01 04:55:43;;;;;;;6.93;6.33;;;18.90;99.90;;;;;;6300493;28;20461;-63
2022/06/01 04:58:46;;;;;;;6.20;5.70;;;19.00;99.90;;;;;;6300134;28;20475;-63
2022/06/01 05:01:51;;;;;;;5.77;5.30;;;19.00;99.90;;;;;;6300141;28;20246;-63
2022/06/01 05:04:54;;;;;;;7.10;5.70;;;19.10;99.90;;;;;;6299431;28;20230;-63
2022/06/01 05:07:57;;;;;;;6.33;5.73;;;19.20;99.90;;;;;;6299362;28;20234;-63
2022/06/01 05:11:01;;;;;;;5.53;5.03;;;19.20;99.90;;;;;;6299878;28;20684;-63
2022/06/01 05:14:04;;;;;;;6.50;6.00;;;19.30;99.90;;;;;;6299436;28;20223;-62
2022/06/01 05:17:08;;;;;;;5.70;5.30;;;19.50;99.90;;;;;;6296846;28;20238;-63
2022/06/01 05:20:19;;;;;;;6.27;5.87;;;19.70;99.90;;;;;;6299524;28;20215;-63
2022/06/01 05:23:22;;;;;;;6.13;5.50;;;19.80;99.90;;;;;;6298756;28;20227;-63
2022/06/01 05:26:26;;;;;;;6.53;5.90;;;20.00;99.90;;;;;;6296092;28;20279;-62
2022/06/01 05:29:30;;;;;;;6.10;5.50;;;20.00;99.90;;;;;;6299066;28;20677;-62
2022/06/01 05:32:34;;;;;;;7.80;6.57;;;20.10;99.90;;;;;;6299203;28;20575;-63
2022/06/01 05:35:37;;;;;;;5.30;4.90;;;20.20;99.90;;;;;;6298648;28;20227;-63
2022/06/01 05:38:42;;;;;;;10.20;5.77;;;20.30;99.90;;;;;;6298948;28;20799;-63
2022/06/01 05:41:46;;;;;;;5.97;5.47;;;20.40;99.90;;;;;;6299143;28;20219;-63
2022/06/01 05:44:50;;;;;;;6.00;5.50;;;20.40;99.90;;;;;;6299112;28;20242;-62
2022/06/01 05:47:54;;;;;;;5.60;5.10;;;20.50;99.90;;;;;;6299567;28;20227;-63
2022/06/01 05:50:57;;;;;;;4.63;4.17;;;20.60;99.90;;;;;;6299448;28;20241;-63
2022/06/01 05:54:00;;;;;;;6.13;5.63;;;20.80;99.90;;;;;;6302792;28;20231;-63
2022/06/01 05:57:04;;;;;;;4.80;4.40;;;20.90;99.90;;;;;;6303981;28;20254;-62
2022/06/01 06:00:11;;;;;;;4.90;4.50;;;21.00;99.90;;;;;;6304436;28;20230;-62
2022/06/01 06:03:18;;;;;;;4.83;4.50;;;21.40;99.90;;;;;;6304161;28;20231;-62
2022/06/01 06:06:27;;;;;;;4.20;3.90;;;21.70;99.60;;;;;;6304143;28;20657;-61
2022/06/01 06:09:30;;;;;;;5.83;3.70;;;22.00;98.60;;;;;;6304149;28;20237;-61
2022/06/01 06:12:33;;;;;;;4.47;4.17;;;22.60;98.30;;;;;;6303787;28;20242;-62
2022/06/01 06:15:36;;;;;;;4.00;3.70;;;23.40;96.80;;;;;;6303630;28;20242;-62
2022/06/01 06:18:40;;;;;;;4.23;3.93;;;24.10;95.20;;;;;;6304018;28;20231;-62
2022/06/01 06:21:44;;;;;;;5.53;4.00;;;24.20;94.00;;;;;;6303734;28;20231;-63
2022/06/01 06:24:47;;;;;;;4.30;4.00;;;24.30;93.20;;;;;;6303498;28;20235;-62
2022/06/01 06:27:51;;;;;;;5.87;5.03;;;24.90;92.10;;;;;;6303799;28;20238;-62
2022/06/01 06:30:54;;;;;;;5.37;4.23;;;25.10;91.90;;;;;;6294640;28;20245;-62
2022/06/01 06:33:59;;;;;;;5.73;4.47;;;25.80;90.30;;;;;;6303828;28;20241;-62
2022/06/01 06:37:02;;;;;;;5.00;4.23;;;26.50;88.20;;;;;;6303210;28;20227;-62
2022/06/01 06:40:07;;;;;;;4.20;3.87;;;27.00;85.60;;;;;;6303424;28;20230;-62
2022/06/01 06:43:11;;;;;;;5.70;5.20;;;27.60;82.70;;;;;;6302971;28;20227;-62
2022/06/01 06:46:18;;;;;;;5.23;4.60;;;26.80;84.70;;;;;;6302791;28;20242;-63
2022/06/01 06:49:22;;;;;;;4.37;3.97;;;26.80;84.60;;;;;;6303207;28;20235;-63
2022/06/01 06:52:26;;;;;;;6.90;4.60;;;27.30;81.40;;;;;;6302806;28;20695;-63
2022/06/01 06:55:29;;;;;;;4.13;3.83;;;27.20;79.40;;;;;;6303454;28;20213;-63
2022/06/01 06:58:33;;;;;;;4.27;3.90;;;27.60;77.60;;;;;;6302938;28;20233;-63
2022/06/01 07:01:36;;;;;;;3.90;3.53;;;27.90;74.30;;;;;;6302747;28;20707;-63
2022/06/01 07:04:41;;;;;;;3.50;3.30;;;28.80;71.10;;;;;;6301558;28;20554;-63
2022/06/01 07:07:51;;;;;;;4.43;4.13;;;29.90;65.60;;;;;;6303011;28;20233;-63
2022/06/01 07:10:55;;;;;;;5.40;4.90;;;30.70;63.60;;;;;;6302967;28;20218;-63
2022/06/01 07:13:59;;;;;;;4.32;3.92;;;31.50;61.80;;;;;;6302940;28;20223;-63
2022/06/01 07:17:03;;;;;;;4.15;3.15;;;32.30;57.80;;;;;;6302127;28;20340;-63
2022/06/01 07:20:09;;;;;;;3.40;3.10;;;32.60;55.30;;;;;;6302756;28;20222;-63
2022/06/01 07:23:12;;;;;;;3.72;3.40;;;33.60;51.80;;;;;;6302141;28;20232;-63
2022/06/01 07:26:18;;;;;;;5.43;3.67;;;34.40;49.40;;;;;;6302542;28;20256;-63
2022/06/01 07:29:22;;;;;;;4.05;3.55;;;35.00;47.80;;;;;;6302066;28;20218;-63
2022/06/01 07:32:25;;;;;;;4.00;3.70;;;35.20;47.60;;;;;;6301378;28;20229;-63
2022/06/01 07:35:30;;;;;;;3.88;3.38;;;35.00;47.30;;;;;;6298492;28;20242;-63
2022/06/01 07:45:16;;;;;;;2.45;2.33;;;35.50;42.70;;;;;;6299783;28;20226;-63
2022/06/01 07:48:20;;;;;;;3.13;2.78;;;35.70;43.30;;;;;;6301629;28;20210;-63
2022/06/01 07:51:45;;;;;;;2.65;2.40;;;35.60;42.00;;;;;;6300510;28;20234;-63
2022/06/01 07:54:52;;;;;;;3.72;2.78;;;35.60;40.30;;;;;;6298487;28;20502;-63
2022/06/01 07:57:56;;;;;;;4.40;2.55;;;34.90;40.40;;;;;;6300668;28;20226;-63
2022/06/01 08:00:59;;;;;;;3.20;2.90;;;34.40;41.20;;;;;;6300974;28;20233;-64
2022/06/01 08:04:04;;;;;;;3.20;3.00;;;33.40;43.00;;;;;;6298365;28;20223;-64
2022/06/01 08:07:09;;;;;;;3.72;3.42;;;32.30;44.20;;;;;;6297764;28;20237;-65
2022/06/01 08:10:14;;;;;;;2.95;2.75;;;31.10;46.10;;;;;;6300344;28;20233;-64
2022/06/01 08:13:17;;;;;;;3.60;3.00;;;30.50;46.90;;;;;;6300622;28;20545;-64
2022/06/01 08:16:20;;;;;;;4.80;2.77;;;29.80;48.80;;;;;;6300980;28;20288;-64
2022/06/01 08:19:24;;;;;;;5.10;3.20;;;29.70;49.10;;;;;;6292755;28;20230;-68
2022/06/01 08:22:28;;;;;;;3.60;3.30;;;29.30;49.80;;;;;;6276409;28;20234;-66
2022/06/01 08:25:32;;;;;;;3.47;3.17;;;29.00;50.60;;;;;;6275978;28;20239;-65
2022/06/01 08:28:35;;;;;;;4.00;2.80;;;28.60;51.30;;;;;;6275792;28;20694;-66
2022/06/01 08:31:38;;;;;;;2.80;2.50;;;28.10;52.20;;;;;;6275904;28;20231;-64
2022/06/01 08:34:42;;;;;;;3.13;2.93;;;27.40;53.80;;;;;;6272262;28;20652;-68
2022/06/01 08:37:48;;;;;;;4.83;2.80;;;27.30;55.00;;;;;;6300074;28;20564;-65
2022/06/01 08:40:56;;;;;;;3.00;2.70;;;27.10;54.80;;;;;;6300822;28;20222;-67
2022/06/01 08:44:04;;;;;;;3.43;3.23;;;26.90;56.20;;;;;;6299762;28;20230;-65
2022/06/01 08:47:10;;;;;;;4.23;2.70;;;26.80;56.70;;;;;;6300410;28;20215;-65
2022/06/01 08:50:19;;;;;;;2.53;2.33;;;26.70;56.90;;;;;;6299690;28;20222;-70
2022/06/01 08:53:24;;;;;;;3.60;3.30;;;26.60;56.70;;;;;;6300079;28;20235;-64
2022/06/01 08:56:35;;;;;;;5.00;3.50;;;26.60;58.00;;;;;;6299835;28;20247;-69
2022/06/01 08:59:47;;;;;;;3.73;3.43;;;26.80;58.50;;;;;;6300005;28;20559;-68
2022/06/01 09:02:58;;;;;;;4.80;3.40;;;26.80;58.10;;;;;;6299704;28;20245;-67
2022/06/01 09:06:07;;;;;;;3.97;3.67;;;26.80;58.10;;;;;;6299794;28;20230;-67
2022/06/01 09:09:20;;;;;;;3.80;3.10;;;26.10;57.90;;;;;;6299967;28;20223;-70
2022/06/01 09:12:25;;;;;;;3.73;3.43;;;25.80;59.10;;;;;;6299439;28;20241;-65
2022/06/01 09:15:30;;;;;;;3.10;2.90;;;25.80;59.10;;;;;;6300066;28;20348;-67
2022/06/01 09:18:40;;;;;;;3.57;3.30;;;25.90;58.50;;;;;;6299862;28;20356;-68
2022/06/01 09:25:18;;;;;;;4.10;3.70;;;26.60;58.20;;;;;;6300139;28;20624;-67
2022/06/01 09:28:24;;;;;;;3.70;3.30;;;26.80;56.90;;;;;;6298863;28;20186;-70
2022/06/01 09:31:34;;;;;;;4.03;3.70;;;26.50;56.70;;;;;;6300251;28;20210;-67
2022/06/01 09:34:41;;;;;;;3.23;2.50;;;26.30;57.00;;;;;;6299331;28;20223;-67
2022/06/01 09:37:47;;;;;;;2.80;2.53;;;26.50;56.50;;;;;;6295290;28;20241;-65
2022/06/01 09:41:03;;;;;;;2.73;2.53;;;26.70;54.60;;;;;;6301329;27;20227;-66
2022/06/01 09:44:09;;;;;;;2.93;2.50;;;26.90;53.80;;;;;;6301007;28;20251;-67
2022/06/01 09:47:27;;;;;;;5.30;2.67;;;27.10;52.80;;;;;;6302652;28;20218;-68
2022/06/01 09:50:33;;;;;;;2.43;2.17;;;27.10;53.20;;;;;;6301829;28;20237;-67
2022/06/01 09:53:42;;;;;;;5.00;2.30;;;27.00;52.10;;;;;;6301843;28;20234;-65
2022/06/01 09:56:47;;;;;;;2.90;2.03;;;27.30;52.60;;;;;;6300740;28;20241;-65
2022/06/01 10:06:50;;;;;;;5.20;2.70;;;27.50;50.50;;;;;;6298471;28;20231;-66
2022/06/01 10:09:55;;;;;;;2.13;1.93;;;28.10;51.00;;;;;;6298040;28;20223;-66
2022/06/01 10:13:00;;;;;;;2.90;2.70;;;28.10;50.70;;;;;;6299005;28;20241;-66
2022/06/01 10:16:14;;;;;;;2.57;2.07;;;28.00;50.30;;;;;;6299165;28;20227;-65
2022/06/01 10:19:23;;;;;;;2.33;2.17;;;27.40;50.30;;;;;;6298811;28;20223;-65
2022/06/01 10:22:33;;;;;;;3.17;1.70;;;27.30;49.80;;;;;;6298651;28;20226;-65
2022/06/01 10:25:41;;;;;;;2.33;2.13;;;27.40;50.00;;;;;;6298886;28;20222;-65
2022/06/01 10:28:51;;;;;;;2.37;2.20;;;27.50;50.10;;;;;;6298671;28;20227;-65
2022/06/01 10:31:58;;;;;;;4.50;2.43;;;27.60;50.40;;;;;;6298841;28;20230;-65
2022/06/01 10:35:10;;;;;;;2.00;1.90;;;27.40;49.80;;;;;;6299089;28;20226;-65
2022/06/01 10:38:18;;;;;;;2.10;1.70;;;27.20;49.50;;;;;;6298825;28;20694;-65
2022/06/01 10:41:26;;;;;;;3.50;2.20;;;27.30;49.00;;;;;;6303397;28;20230;-66
2022/06/01 10:44:39;;;;;;;2.30;2.20;;;27.30;50.50;;;;;;6303618;28;20242;-66
2022/06/01 10:47:54;;;;;;;2.07;1.90;;;27.30;50.50;;;;;;6302914;28;20222;-66
2022/06/01 10:51:04;;;;;;;2.40;2.20;;;27.20;50.70;;;;;;6303342;28;20299;-66
2022/06/01 10:54:22;;;;;;;2.30;2.10;;;27.20;50.80;;;;;;6302689;28;20660;-66
2022/06/01 10:57:26;;;;;;;2.70;2.37;;;27.20;50.40;;;;;;6303029;28;20241;-66
2022/06/01 11:00:36;;;;;;;2.70;2.47;;;26.90;51.20;;;;;;6302666;28;20236;-66
2022/06/01 11:04:04;;;;;;;2.50;2.30;;;27.00;52.70;;;;;;6302525;28;20238;-66
2022/06/01 11:07:34;;;;;;;2.57;2.37;;;27.00;53.10;;;;;;6301795;28;20238;-66
2022/06/01 11:10:48;;;;;;;3.23;3.00;;;26.90;55.60;;;;;;6289867;28;20229;-66
2022/06/01 11:14:03;;;;;;;2.87;2.67;;;27.00;55.20;;;;;;6302575;28;20257;-65
2022/06/01 11:17:14;;;;;;;2.80;2.60;;;27.00;53.60;;;;;;6302733;28;20790;-65
2022/06/01 11:20:33;;;;;;;2.87;2.67;;;27.10;54.50;;;;;;6302231;28;20238;-66
2022/06/01 11:23:46;;;;;;;3.00;2.80;;;27.40;54.40;;;;;;6302193;28;20573;-65
2022/06/01 11:27:03;;;;;;;3.43;2.77;;;27.20;54.90;;;;;;6302624;28;20664;-65
2022/06/01 11:30:12;;;;;;;2.37;2.17;;;27.10;54.50;;;;;;6302299;28;20229;-65
2022/06/01 11:33:32;;;;;;;2.47;2.27;;;26.70;54.60;;;;;;6301808;28;20738;-66
2022/06/01 11:36:44;;;;;;;3.27;2.97;;;26.90;54.00;;;;;;6301786;28;20245;-66
2022/06/01 11:39:54;;;;;;;3.17;2.60;;;27.10;54.00;;;;;;6301572;28;20231;-66
2022/06/01 11:43:03;;;;;;;2.70;2.50;;;26.90;54.60;;;;;;6301756;28;20313;-66
2022/06/01 11:46:13;;;;;;;2.80;2.60;;;26.90;55.90;;;;;;6302138;28;20243;-66
2022/06/01 11:49:31;;;;;;;3.10;2.90;;;27.10;55.70;;;;;;6301189;28;20662;-67
2022/06/01 11:52:41;;;;;;;3.10;2.87;;;27.10;55.20;;;;;;6300756;28;20226;-69
2022/06/01 11:55:49;;;;;;;2.90;2.70;;;27.20;55.80;;;;;;6301686;28;20306;-63
2022/06/01 11:59:15;;;;;;;3.03;2.77;;;27.20;55.00;;;;;;6301360;28;20226;-63
2022/06/01 12:02:40;;;;;;;3.40;3.10;;;27.00;55.90;;;;;;6300995;28;20222;-64
2022/06/01 12:06:01;;;;;;;3.20;2.47;;;27.20;55.70;;;;;;6300304;28;20222;-67
2022/06/01 12:09:05;;;;;;;4.17;2.90;;;27.60;54.90;;;;;;6301061;28;20227;-67
2022/06/01 12:12:25;;;;;;;3.27;2.53;;;28.00;54.60;;;;;;6300891;28;20556;-66
2022/06/01 12:15:32;;;;;;;3.53;3.23;;;28.30;53.30;;;;;;6300965;28;20242;-67
2022/06/01 12:18:36;;;;;;;3.40;3.10;;;28.30;52.90;;;;;;6300646;28;20226;-65
2022/06/01 12:21:58;;;;;;;3.03;2.83;;;28.30;53.40;;;;;;6300297;28;20238;-66
2022/06/01 12:28:34;;;;;;;2.20;2.10;;;27.90;52.90;;;;;;6300716;28;20215;-65
2022/06/01 12:31:39;;;;;;;3.20;2.70;;;27.60;53.50;;;;;;6300431;28;20518;-65
2022/06/01 12:35:03;;;;;;;2.60;2.40;;;27.90;54.10;;;;;;6299835;28;20551;-66
2022/06/01 12:38:10;;;;;;;2.93;2.73;;;28.20;53.20;;;;;;6300399;28;20222;-68
2022/06/01 12:41:18;;;;;;;2.90;2.20;;;28.00;52.90;;;;;;6300178;28;20280;-67
2022/06/01 12:44:23;;;;;;;2.57;2.30;;;27.70;53.80;;;;;;6299855;28;20333;-70
2022/06/01 12:47:29;;;;;;;2.17;2.07;;;27.50;54.30;;;;;;6300237;28;20218;-64
2022/06/01 12:50:45;;;;;;;2.50;2.23;;;27.80;53.20;;;;;;6284207;28;20227;-65
2022/06/01 12:53:53;;;;;;;3.30;2.60;;;27.80;53.00;;;;;;6299662;28;20621;-65
2022/06/01 12:56:57;;;;;;;1.97;1.87;;;27.80;52.80;;;;;;6299573;28;20226;-66
2022/06/01 13:00:02;;;;;;;2.23;2.03;;;27.80;52.40;;;;;;6299796;28;20242;-67
2022/06/01 13:03:12;;;;;;;3.43;2.40;;;27.30;53.50;;;;;;6298806;28;20232;-68
2022/06/01 13:06:20;;;;;;;2.30;2.10;;;27.20;53.80;;;;;;6300000;28;20231;-67
2022/06/01 13:09:30;;;;;;;2.33;1.90;;;27.10;54.00;;;;;;6299826;28;20229;-67
2022/06/01 13:12:35;;;;;;;3.30;2.47;;;27.20;53.50;;;;;;6299686;28;20234;-68
2022/06/01 13:15:39;;;;;;;2.90;2.47;;;27.30;53.80;;;;;;6299550;28;20230;-66
2022/06/01 13:18:45;;;;;;;3.37;2.63;;;27.10;53.40;;;;;;6299413;28;20680;-66
2022/06/01 13:21:54;;;;;;;2.60;2.40;;;27.00;53.90;;;;;;6299712;28;20234;-67
2022/06/01 13:25:03;;;;;;;2.03;1.80;;;27.00;54.20;;;;;;6300478;28;20223;-66
2022/06/01 13:28:07;;;;;;;2.50;2.30;;;27.00;54.10;;;;;;6299580;28;20238;-67
2022/06/01 13:31:10;;;;;;;2.23;2.13;;;26.80;53.90;;;;;;6299559;28;20223;-67
2022/06/01 13:34:21;;;;;;;2.80;2.57;;;26.80;54.60;;;;;;6298816;28;20227;-68
2022/06/01 13:37:27;;;;;;;3.53;2.20;;;26.80;53.90;;;;;;6299560;28;20528;-66
2022/06/01 13:40:35;;;;;;;2.57;2.10;;;26.80;53.20;;;;;;6299635;28;20214;-67
2022/06/01 13:43:43;;;;;;;2.50;2.30;;;26.70;53.60;;;;;;6299129;28;20237;-66
2022/06/01 13:46:49;;;;;;;3.40;2.20;;;26.70;54.30;;;;;;6299320;28;20301;-66
2022/06/01 13:50:00;;;;;;;2.40;2.20;;;26.90;54.30;;;;;;6298957;28;20244;-65
2022/06/01 13:53:07;;;;;;;3.63;2.30;;;26.80;54.60;;;;;;6289946;28;20319;-68
2022/06/01 13:56:28;;;;;;;2.87;2.67;;;26.80;54.30;;;;;;6299557;28;20232;-68
2022/06/01 13:59:35;;;;;;;2.00;1.90;;;26.90;54.30;;;;;;6300177;28;20576;-67
2022/06/01 14:02:47;;;;;;;2.80;2.60;;;27.00;54.30;;;;;;6300107;28;20230;-66
2022/06/01 14:06:02;;;;;;;2.80;2.50;;;27.00;54.80;;;;;;6299224;28;20257;-66
2022/06/01 14:09:09;;;;;;;3.13;2.83;;;26.80;54.80;;;;;;6274592;28;20229;-65
2022/06/01 14:12:15;;;;;;;2.70;2.50;;;26.70;55.20;;;;;;6295218;28;20244;-66
2022/06/01 14:15:18;;;;;;;2.67;2.47;;;26.50;56.20;;;;;;6302780;28;20659;-65
2022/06/01 14:18:25;;;;;;;2.70;2.50;;;26.50;57.10;;;;;;6303461;28;20578;-67
2022/06/01 14:21:29;;;;;;;3.07;2.77;;;26.60;57.20;;;;;;6303584;28;20549;-64
2022/06/01 14:31:23;;;;;;;2.40;2.30;;;26.30;57.30;;;;;;6303553;27;20217;-65
2022/06/01 14:34:27;;;;;;;5.13;2.77;;;26.10;57.60;;;;;;6303168;28;20202;-65
2022/06/01 14:37:34;;;;;;;4.83;2.90;;;26.20;57.50;;;;;;6303438;28;20226;-64
2022/06/01 14:40:38;;;;;;;3.60;3.00;;;26.30;57.30;;;;;;6303327;28;20226;-66
2022/06/01 14:43:42;;;;;;;3.50;2.87;;;26.30;56.90;;;;;;6302871;28;20226;-66
2022/06/01 14:46:46;;;;;;;2.87;2.43;;;26.30;57.20;;;;;;6303033;28;20733;-66
2022/06/01 14:49:49;;;;;;;3.40;3.10;;;26.10;58.20;;;;;;6302998;28;20242;-66
2022/06/01 14:52:53;;;;;;;2.87;2.67;;;26.10;58.20;;;;;;6302757;28;20587;-65
2022/06/01 14:55:56;;;;;;;3.43;3.13;;;26.10;58.10;;;;;;6298720;28;20644;-65
2022/06/01 14:59:04;;;;;;;4.03;3.13;;;26.10;58.00;;;;;;6302983;28;20226;-66
2022/06/01 15:02:09;;;;;;;3.40;3.20;;;26.10;59.00;;;;;;6302404;28;20239;-64
2022/06/01 15:05:13;;;;;;;4.30;3.20;;;26.00;59.20;;;;;;6302999;28;20226;-65
2022/06/01 15:08:17;;;;;;;3.43;3.00;;;26.10;59.30;;;;;;6302619;28;20309;-65
2022/06/01 15:11:20;;;;;;;3.07;2.87;;;26.20;59.20;;;;;;6302512;28;20223;-66
2022/06/01 15:14:25;;;;;;;4.47;3.00;;;26.30;59.20;;;;;;6302619;28;20222;-64
2022/06/01 15:17:28;;;;;;;2.67;2.47;;;25.90;59.80;;;;;;6288945;28;20228;-64
2022/06/01 15:20:31;;;;;;;3.60;2.73;;;25.70;60.40;;;;;;6291968;28;20230;-64
2022/06/01 15:23:44;;;;;;;4.90;2.63;;;25.80;60.90;;;;;;6296205;28;20227;-64
2022/06/01 15:26:47;;;;;;;3.20;2.90;;;25.90;60.00;;;;;;6276452;28;20353;-63
2022/06/01 15:39:54;;;;;;;3.80;3.40;;;25.80;60.40;;;;;;6275588;28;20227;-65
2022/06/01 15:42:57;;;;;;;3.40;3.10;;;25.60;61.30;;;;;;6275273;28;20613;-64
2022/06/01 15:46:02;;;;;;;4.80;3.03;;;25.60;61.40;;;;;;6275685;28;20288;-65
2022/06/01 15:49:08;;;;;;;2.63;2.40;;;25.50;61.60;;;;;;6276472;28;20223;-66
2022/06/01 15:52:15;;;;;;;3.77;2.90;;;25.70;61.20;;;;;;6276354;28;20228;-65
2022/06/01 15:55:20;;;;;;;3.10;2.83;;;25.80;60.60;;;;;;6276649;28;20212;-64
2022/06/01 15:58:23;;;;;;;6.97;3.17;;;25.80;59.80;;;;;;6276357;28;20218;-64
2022/06/01 16:01:30;;;;;;;3.17;2.97;;;25.70;60.80;;;;;;6271932;28;20665;-65
2022/06/01 16:04:33;;;;;;;4.17;3.10;;;25.40;61.50;;;;;;6291855;28;21669;-66
2022/06/01 16:07:36;;;;;;;2.83;2.63;;;25.10;61.20;;;;;;6301238;28;20246;-64
2022/06/01 16:10:40;;;;;;;3.60;3.30;;;25.20;61.10;;;;;;6301216;28;20234;-65
2022/06/01 16:13:47;;;;;;;3.07;2.80;;;25.20;60.80;;;;;;6300822;28;20671;-64
2022/06/01 16:16:51;;;;;;;3.40;2.83;;;25.30;61.00;;;;;;6301464;28;20238;-65
2022/06/01 16:19:55;;;;;;;3.10;2.90;;;25.30;61.10;;;;;;6300681;28;20671;-64
2022/06/01 16:22:58;;;;;;;2.60;2.40;;;25.30;60.80;;;;;;6300838;28;20313;-65
2022/06/01 16:26:01;;;;;;;3.43;3.13;;;25.50;60.20;;;;;;6300944;28;20237;-65
2022/06/01 16:29:05;;;;;;;3.53;3.20;;;25.30;60.40;;;;;;6300839;28;20661;-65
2022/06/01 16:32:17;;;;;;;3.50;2.40;;;25.30;60.40;;;;;;6300054;28;20250;-64
2022/06/01 16:35:24;;;;;;;2.97;2.63;;;25.20;60.80;;;;;;6300875;28;20227;-64
2022/06/01 16:38:32;;;;;;;3.30;3.00;;;25.20;60.60;;;;;;6300756;28;20222;-65
2022/06/01 16:41:38;;;;;;;4.20;2.93;;;25.20;60.90;;;;;;6300310;28;21654;-64
2022/06/01 16:44:41;;;;;;;2.70;2.50;;;25.20;61.10;;;;;;6300125;28;20239;-63
2022/06/01 16:47:46;;;;;;;3.50;3.20;;;25.10;61.30;;;;;;6300104;28;20520;-65
2022/06/01 16:50:49;;;;;;;3.03;2.70;;;25.10;61.70;;;;;;6300021;28;20245;-65
2022/06/01 16:53:52;;;;;;;2.80;2.60;;;25.10;62.00;;;;;;6299796;28;20243;-65
2022/06/01 16:56:55;;;;;;;2.80;2.53;;;25.00;62.50;;;;;;6300152;28;20226;-66